createdAt,value
2022-11-25T00:01:33.903Z,97401.35
2022-11-25T00:04:02.310Z,97403.39
2022-11-25T00:06:33.306Z,97406.27
2022-11-25T00:09:06.199Z,97401.91
2022-11-25T00:11:39.337Z,97404.36
2022-11-25T00:14:11.166Z,97405.96
2022-11-25T00:16:42.506Z,97404.02
2022-11-25T00:19:13.220Z,97402.61
2022-11-25T00:21:41.120Z,97406.63
2022-11-25T00:24:09.343Z,97407.80
2022-11-25T00:26:37.280Z,97408.42
2022-11-25T00:29:07.861Z,97410.13
2022-11-25T00:31:39.091Z,97413.38
2022-11-25T00:34:11.044Z,97412.38
2022-11-25T00:36:39.876Z,97417.58
2022-11-25T00:39:11.781Z,97418.20
2022-11-25T00:41:58.786Z,97419.05
2022-11-25T00:44:36.299Z,97416.51
2022-11-25T00:47:09.529Z,97418.92
2022-11-25T00:49:39.657Z,97421.08
2022-11-25T00:52:08.824Z,97417.55
2022-11-25T00:54:37.180Z,97422.06
2022-11-25T00:57:05.388Z,97421.64
2022-11-25T00:59:33.421Z,97423.59
2022-11-25T01:02:01.740Z,97423.42
2022-11-25T01:04:30.946Z,97427.20
2022-11-25T01:07:00.215Z,97431.84
2022-11-25T01:09:29.345Z,97437.30
2022-11-25T01:11:57.708Z,97438.64
2022-11-25T01:14:26.448Z,97441.20
2022-11-25T01:16:54.437Z,97436.71
2022-11-25T01:19:24.418Z,97443.06
2022-11-25T01:21:52.684Z,97449.73
2022-11-25T01:24:23.532Z,97452.29
2022-11-25T01:26:55.988Z,97454.10
2022-11-25T01:29:24.235Z,97456.39
2022-11-25T01:31:56.437Z,97459.34
2022-11-25T01:34:26.936Z,97469.04
2022-11-25T01:36:58.548Z,97466.70
2022-11-25T01:39:32.199Z,97470.23
2022-11-25T01:42:01.922Z,97473.85
2022-11-25T01:44:32.281Z,97469.95
2022-11-25T01:47:19.802Z,97478.71
2022-11-25T01:50:00.800Z,97476.02
2022-11-25T01:52:35.620Z,97476.52
2022-11-25T01:55:17.714Z,97475.27
2022-11-25T01:57:52.510Z,97474.05
2022-11-25T02:00:21.177Z,97473.60
2022-11-25T02:02:53.277Z,97480.57
2022-11-25T02:05:33.785Z,97489.86
2022-11-25T02:08:02.284Z,97500.06
2022-11-25T02:10:32.353Z,97500.67
2022-11-25T02:13:00.392Z,97499.63
2022-11-25T02:15:31.204Z,97494.39
2022-11-25T02:17:59.417Z,97493.58
2022-11-25T02:20:28.916Z,97493.49
2022-11-25T02:23:33.546Z,97501.19
2022-11-25T02:26:02.299Z,97504.60
2022-11-25T02:28:32.589Z,97498.50
2022-11-25T02:31:04.216Z,97497.84
2022-11-25T02:33:32.967Z,97499.98
2022-11-25T02:36:05.379Z,97507.63
2022-11-25T02:38:54.656Z,97510.41
2022-11-25T02:41:32.703Z,97514.27
2022-11-25T02:44:03.540Z,97511.25
2022-11-25T02:46:32.672Z,97510.52
2022-11-25T02:49:11.433Z,97509.14
2022-11-25T02:51:44.755Z,97518.23
2022-11-25T02:54:15.635Z,97519.48
2022-11-25T02:56:44.010Z,97520.84
2022-11-25T02:59:12.065Z,97527.66
2022-11-25T03:01:40.472Z,97530.84
2022-11-25T03:04:10.414Z,97532.56
2022-11-25T03:06:38.413Z,97536.98
2022-11-25T03:09:08.154Z,97534.55
2022-11-25T03:11:57.819Z,97537.53
2022-11-25T03:14:25.890Z,97537.91
2022-11-25T03:16:53.807Z,97540.17
2022-11-25T03:19:21.920Z,97535.80
2022-11-25T03:21:49.824Z,97536.73
2022-11-25T03:24:17.687Z,97539.83
2022-11-25T03:26:48.411Z,97541.52
2022-11-25T03:29:16.571Z,97544.23
2022-11-25T03:31:44.577Z,97550.08
2022-11-25T03:34:13.170Z,97553.13
2022-11-25T03:36:42.140Z,97556.16
2022-11-25T03:39:10.747Z,97556.59
2022-11-25T03:41:38.753Z,97554.70
2022-11-25T03:44:06.732Z,97556.96
2022-11-25T03:46:35.136Z,97556.95
2022-11-25T03:49:04.372Z,97556.16
2022-11-25T03:51:32.364Z,97559.80
2022-11-25T03:54:00.953Z,97565.34
2022-11-25T03:56:29.885Z,97564.96
2022-11-25T03:58:57.931Z,97562.50
2022-11-25T04:01:26.502Z,97562.84
2022-11-25T04:03:54.658Z,97568.84
2022-11-25T04:06:24.036Z,97578.38
2022-11-25T04:08:52.698Z,97578.36
2022-11-25T04:11:20.732Z,97579.47
2022-11-25T04:13:55.753Z,97583.17
2022-11-25T04:16:26.342Z,97582.16
2022-11-25T04:18:54.896Z,97584.49
2022-11-25T04:21:22.861Z,97585.16
2022-11-25T04:23:50.919Z,97591.10
2022-11-25T04:26:18.981Z,97586.34
2022-11-25T04:28:47.018Z,97589.81
2022-11-25T04:31:15.256Z,97591.56
2022-11-25T04:33:49.667Z,97601.77
2022-11-25T04:36:20.608Z,97603.26
2022-11-25T04:38:48.749Z,97612.87
2022-11-25T04:41:16.884Z,97612.84
2022-11-25T04:43:49.342Z,97617.13
2022-11-25T04:46:20.586Z,97623.38
2022-11-25T04:48:50.759Z,97623.66
2022-11-25T04:51:19.294Z,97628.05
2022-11-25T04:53:47.831Z,97632.11
2022-11-25T04:56:20.071Z,97633.21
2022-11-25T04:59:06.944Z,97640.98
2022-11-25T05:01:37.286Z,97644.98
2022-11-25T05:04:12.786Z,97642.21
2022-11-25T05:06:40.704Z,97644.69
2022-11-25T05:09:11.257Z,97646.86
2022-11-25T05:11:40.233Z,97654.52
2022-11-25T05:14:08.506Z,97657.19
2022-11-25T05:16:36.827Z,97658.25
2022-11-25T05:19:06.686Z,97663.26
2022-11-25T05:21:34.657Z,97667.91
2022-11-25T05:24:03.163Z,97664.63
2022-11-25T05:26:31.967Z,97671.27
2022-11-25T05:29:03.780Z,97678.86
2022-11-25T05:31:32.352Z,97686.05
2022-11-25T05:34:02.161Z,97686.48
2022-11-25T05:36:32.346Z,97692.79
2022-11-25T05:39:01.048Z,97704.09
2022-11-25T05:41:40.988Z,97708.38
2022-11-25T05:44:09.818Z,97709.24
2022-11-25T05:46:39.834Z,97693.61
2022-11-25T05:49:07.969Z,97697.36
2022-11-25T05:51:38.971Z,97694.90
2022-11-25T05:54:08.173Z,97695.20
2022-11-25T05:56:37.967Z,97698.54
2022-11-25T05:59:26.007Z,97705.70
2022-11-25T06:02:03.606Z,97718.58
2022-11-25T06:04:32.244Z,97725.29
2022-11-25T06:07:00.419Z,97729.58
2022-11-25T06:09:28.470Z,97746.11
2022-11-25T06:11:57.065Z,97754.23
2022-11-25T06:14:25.205Z,97758.55
2022-11-25T06:16:53.680Z,97758.29
2022-11-25T06:19:38.176Z,97764.77
2022-11-25T06:22:06.151Z,97764.25
2022-11-25T06:24:34.304Z,97759.92
2022-11-25T06:27:06.035Z,97754.06
2022-11-25T06:29:35.828Z,97763.68
2022-11-25T06:32:04.112Z,97766.66
2022-11-25T06:34:42.887Z,97762.44
2022-11-25T06:37:29.509Z,97756.48
2022-11-25T06:39:57.763Z,97753.30
2022-11-25T06:42:26.021Z,97753.38
2022-11-25T06:45:29.183Z,97754.10
2022-11-25T06:48:10.801Z,97753.73
2022-11-25T06:50:53.438Z,97761.86
2022-11-25T06:53:25.191Z,97769.46
2022-11-25T06:56:15.427Z,97769.31
2022-11-25T06:58:53.281Z,97770.48
2022-11-25T07:01:23.943Z,97781.92
2022-11-25T07:03:54.369Z,97779.80
2022-11-25T07:06:25.351Z,97781.19
2022-11-25T07:08:55.327Z,97782.02
2022-11-25T07:11:31.336Z,97794.38
2022-11-25T07:14:12.012Z,97802.77
2022-11-25T07:16:57.076Z,97783.52
2022-11-25T07:19:27.027Z,97775.36
2022-11-25T07:22:07.148Z,97773.30
2022-11-25T07:25:16.944Z,97780.16
2022-11-25T07:28:05.184Z,97798.07
2022-11-25T07:33:24.447Z,97799.45
2022-11-25T07:35:55.165Z,97798.84
2022-11-25T07:38:24.170Z,97806.38
2022-11-25T07:40:53.412Z,97816.16
2022-11-25T07:43:21.442Z,97827.20
2022-11-25T07:45:49.668Z,97824.95
2022-11-25T07:48:18.132Z,97814.36
2022-11-25T07:50:47.187Z,97817.30
2022-11-25T07:53:16.184Z,97820.96
2022-11-25T07:55:47.348Z,97811.45
2022-11-25T07:58:16.297Z,97807.45
2022-11-25T08:00:45.525Z,97801.00
2022-11-25T08:03:13.629Z,97811.78
2022-11-25T08:05:42.714Z,97824.33
2022-11-25T08:08:10.753Z,97824.31
2022-11-25T08:10:41.084Z,97816.84
2022-11-25T08:13:10.550Z,97827.93
2022-11-25T08:15:40.193Z,97829.65
2022-11-25T08:18:08.334Z,97842.27
2022-11-25T08:20:37.787Z,97858.49
2022-11-25T08:23:05.785Z,97861.81
2022-11-25T08:25:50.116Z,97853.63
2022-11-25T08:28:19.169Z,97852.07
2022-11-25T08:30:47.368Z,97852.65
2022-11-25T08:33:16.312Z,97836.96
2022-11-25T08:35:45.036Z,97842.73
2022-11-25T08:38:14.478Z,97840.66
2022-11-25T08:40:45.650Z,97844.13
2022-11-25T08:43:14.253Z,97839.79
2022-11-25T08:45:42.427Z,97849.11
2022-11-25T08:48:10.561Z,97861.48
2022-11-25T08:50:39.411Z,97865.48
2022-11-25T08:53:07.573Z,97848.88
2022-11-25T08:55:37.286Z,97852.14
2022-11-25T08:58:10.062Z,97857.96
2022-11-25T09:00:42.933Z,97859.30
2022-11-25T09:03:12.808Z,97870.85
2022-11-25T09:05:43.400Z,97867.11
2022-11-25T09:08:14.394Z,97859.83
2022-11-25T09:10:43.063Z,97855.34
2022-11-25T09:13:13.063Z,97854.27
2022-11-25T09:15:41.194Z,97852.10
2022-11-25T09:18:12.285Z,97849.62
2022-11-25T09:20:42.819Z,97847.50
2022-11-25T09:23:10.882Z,97862.29
2022-11-25T09:25:40.098Z,97865.84
2022-11-25T09:28:09.609Z,97862.04
2022-11-25T09:30:37.992Z,97873.02
2022-11-25T09:33:06.256Z,97867.79
2022-11-25T09:35:34.409Z,97860.98
2022-11-25T09:38:04.649Z,97853.37
2022-11-25T09:40:58.728Z,97856.56
2022-11-25T09:44:10.800Z,97862.37
2022-11-25T09:46:58.026Z,97865.84
2022-11-25T09:49:41.282Z,97873.69
2022-11-25T09:52:12.147Z,97862.56
2022-11-25T09:55:10.640Z,97870.15
2022-11-25T09:58:05.302Z,97867.79
2022-11-25T10:00:42.440Z,97870.58
2022-11-25T10:03:41.790Z,97869.95
2022-11-25T10:06:54.896Z,97869.33
2022-11-25T10:09:35.756Z,97870.61
2022-11-25T10:12:27.427Z,97869.17
2022-11-25T10:15:01.712Z,97874.65
2022-11-25T10:17:41.516Z,97877.09
2022-11-25T10:20:34.393Z,97864.45
2022-11-25T10:23:16.392Z,97870.50
2022-11-25T10:25:49.489Z,97866.64
2022-11-25T10:28:23.946Z,97869.70
2022-11-25T10:31:04.812Z,97875.70
2022-11-25T10:33:36.118Z,97873.71
2022-11-25T10:36:35.042Z,97876.21
2022-11-25T10:39:12.117Z,97877.39
2022-11-25T10:41:51.100Z,97882.07
2022-11-25T10:44:31.739Z,97877.73
2022-11-25T10:47:15.524Z,97883.35
2022-11-25T10:50:07.588Z,97880.73
2022-11-25T10:52:44.591Z,97885.25
2022-11-25T10:55:20.573Z,97900.33
2022-11-25T10:57:51.777Z,97882.71
2022-11-25T11:00:36.269Z,97876.52
2022-11-25T11:03:25.344Z,97885.59
2022-11-25T11:05:56.993Z,97898.05
2022-11-25T11:08:36.674Z,97902.84
2022-11-25T11:11:10.110Z,97898.55
2022-11-25T11:13:39.389Z,97894.01
2022-11-25T11:16:37.970Z,97889.05
2022-11-25T11:19:07.022Z,97895.60
2022-11-25T11:21:38.779Z,97896.27
2022-11-25T11:24:29.246Z,97898.84
2022-11-25T11:27:19.441Z,97899.95
2022-11-25T11:29:48.688Z,97904.98
2022-11-25T11:32:24.760Z,97903.98
2022-11-25T11:35:04.566Z,97915.46
2022-11-25T11:37:46.092Z,97912.08
2022-11-25T11:40:34.468Z,97903.36
2022-11-25T11:43:24.701Z,97909.30
2022-11-25T11:46:29.386Z,97906.69
2022-11-25T11:49:30.507Z,97911.03
2022-11-25T11:52:07.731Z,97908.73
2022-11-25T11:54:53.090Z,97906.14
2022-11-25T11:57:35.885Z,97905.05
2022-11-25T12:00:13.726Z,97904.58
2022-11-25T12:03:11.364Z,97904.70
2022-11-25T12:05:40.383Z,97912.83
2022-11-25T12:09:01.288Z,97902.48
2022-11-25T12:11:35.824Z,97901.23
2022-11-25T12:14:20.297Z,97905.35
2022-11-25T12:16:59.540Z,97908.13
2022-11-25T12:19:55.310Z,97909.16
2022-11-25T12:22:32.580Z,97926.10
2022-11-25T12:25:22.437Z,97925.39
2022-11-25T12:28:09.699Z,97922.33
2022-11-25T12:31:00.559Z,97930.33
2022-11-25T12:33:54.977Z,97934.84
2022-11-25T12:36:35.194Z,97931.38
2022-11-25T12:39:19.243Z,97939.59
2022-11-25T12:41:53.382Z,97940.79
2022-11-25T12:44:31.392Z,97937.65
2022-11-25T12:46:59.452Z,97934.61
2022-11-25T12:49:35.978Z,97940.77
2022-11-25T12:52:30.291Z,97952.39
2022-11-25T12:55:23.537Z,97936.42
2022-11-25T12:58:22.950Z,97938.25
2022-11-25T13:01:13.181Z,97938.38
2022-11-25T13:04:17.130Z,97941.19
2022-11-25T13:07:11.416Z,97945.30
2022-11-25T13:09:54.920Z,97957.08
2022-11-25T13:13:02.105Z,97951.73
2022-11-25T13:15:38.118Z,97953.13
2022-11-25T13:18:33.578Z,97960.95
2022-11-25T13:21:14.712Z,97967.21
2022-11-25T13:23:49.555Z,97959.69
2022-11-25T13:26:38.061Z,97971.47
2022-11-25T13:29:26.425Z,97972.16
2022-11-25T13:32:03.014Z,97979.56
2022-11-25T13:34:35.696Z,97979.66
2022-11-25T13:37:34.961Z,97975.95
2022-11-25T13:40:24.009Z,97984.66
2022-11-25T13:42:55.982Z,97978.29
2022-11-25T13:45:29.075Z,97978.73
2022-11-25T13:48:13.369Z,97980.71
2022-11-25T13:51:09.340Z,97990.06
2022-11-25T13:53:35.023Z,97981.06
2022-11-25T13:56:22.823Z,97981.59
2022-11-25T13:59:15.722Z,97990.95
2022-11-25T14:01:45.631Z,98007.47
2022-11-25T14:04:16.525Z,98003.73
2022-11-25T14:07:07.181Z,98001.95
2022-11-25T14:09:53.930Z,98000.81
2022-11-25T14:12:34.823Z,98000.87
2022-11-25T14:15:36.810Z,98004.60
2022-11-25T14:18:15.556Z,98004.92
2022-11-25T14:21:24.749Z,98010.31
2022-11-25T14:23:59.564Z,98007.95
2022-11-25T14:26:49.245Z,98013.59
2022-11-25T14:29:23.800Z,98024.30
2022-11-25T14:32:08.676Z,98028.91
2022-11-25T14:34:41.916Z,98017.67
2022-11-25T14:37:31.863Z,98021.23
2022-11-25T14:40:07.132Z,98027.36
2022-11-25T14:42:40.751Z,98033.83
2022-11-25T14:45:22.025Z,98042.80
2022-11-25T14:47:50.451Z,98052.83
2022-11-25T14:50:34.415Z,98040.98
2022-11-25T14:53:08.890Z,98033.15
2022-11-25T14:55:40.040Z,98046.11
2022-11-25T14:58:13.737Z,98037.69
2022-11-25T15:01:37.522Z,98033.98
2022-11-25T15:04:08.316Z,98036.95
2022-11-25T15:06:40.271Z,98030.94
2022-11-25T15:09:33.185Z,98040.83
2022-11-25T15:12:05.277Z,98049.78
2022-11-25T15:14:36.541Z,98049.70
2022-11-25T15:17:31.147Z,98041.75
2022-11-25T15:20:02.605Z,98046.73
2022-11-25T15:22:33.720Z,98046.52
2022-11-25T15:25:14.135Z,98055.64
2022-11-25T15:27:50.056Z,98051.48
2022-11-25T15:30:29.480Z,98049.89
2022-11-25T15:33:00.012Z,98048.89
2022-11-25T15:35:28.163Z,98059.42
2022-11-25T15:37:56.571Z,98065.64
2022-11-25T15:40:44.138Z,98073.80
2022-11-25T15:43:31.989Z,98081.13
2022-11-25T15:46:03.803Z,98072.45
2022-11-25T15:48:46.345Z,98064.27
2022-11-25T15:51:36.568Z,98068.19
2022-11-25T15:54:27.267Z,98078.52
2022-11-25T15:57:05.959Z,98078.10
2022-11-25T15:59:51.008Z,98086.04
2022-11-25T16:02:43.496Z,98070.95
2022-11-25T16:05:25.164Z,98071.94
2022-11-25T16:07:53.689Z,98079.25
2022-11-25T16:10:30.714Z,98083.17
2022-11-25T16:13:22.831Z,98088.38
2022-11-25T16:15:53.185Z,98078.25
2022-11-25T16:18:40.314Z,98079.72
2022-11-25T16:21:39.664Z,98085.00
2022-11-25T16:24:22.395Z,98084.09
2022-11-25T16:26:50.822Z,98089.36
2022-11-25T16:29:47.345Z,98091.86
2022-11-25T16:32:16.854Z,98098.54
2022-11-25T16:34:45.771Z,98102.94
2022-11-25T16:37:14.191Z,98109.69
2022-11-25T16:39:42.281Z,98113.91
2022-11-25T16:42:18.795Z,98104.13
2022-11-25T16:44:49.650Z,98102.11
2022-11-25T16:47:20.692Z,98095.11
2022-11-25T16:49:49.949Z,98097.96
2022-11-25T16:52:18.591Z,98091.77
2022-11-25T16:54:47.531Z,98092.23
2022-11-25T16:57:20.462Z,98084.48
2022-11-25T16:59:54.583Z,98077.48
2022-11-25T17:02:26.240Z,98075.98
2022-11-25T17:04:55.727Z,98076.20
2022-11-25T17:07:32.903Z,98084.71
2022-11-25T17:10:01.893Z,98094.64
2022-11-25T17:12:33.310Z,98096.09
2022-11-25T17:15:04.769Z,98097.00
2022-11-25T17:17:35.918Z,98100.97
2022-11-25T17:20:04.864Z,98106.73
2022-11-25T17:22:39.010Z,98110.66
2022-11-25T17:25:12.355Z,98108.44
2022-11-25T17:27:42.910Z,98115.16
2022-11-25T17:30:21.797Z,98122.51
2022-11-25T17:33:03.764Z,98126.95
2022-11-25T17:35:32.305Z,98124.89
2022-11-25T17:38:01.366Z,98129.63
2022-11-25T17:40:30.377Z,98127.67
2022-11-25T17:42:58.783Z,98132.81
2022-11-25T17:45:27.469Z,98133.10
2022-11-25T17:47:58.044Z,98144.39
2022-11-25T17:50:27.214Z,98137.02
2022-11-25T17:52:55.852Z,98134.19
2022-11-25T17:55:24.249Z,98129.52
2022-11-25T17:57:53.924Z,98126.39
2022-11-25T18:00:24.196Z,98127.38
2022-11-25T18:02:52.370Z,98130.35
2022-11-25T18:05:23.642Z,98133.13
2022-11-25T18:07:52.029Z,98132.52
2022-11-25T18:10:26.053Z,98141.38
2022-11-25T18:12:56.307Z,98142.56
2022-11-25T18:15:28.581Z,98150.79
2022-11-25T18:18:06.452Z,98153.61
2022-11-25T18:20:34.924Z,98158.39
2022-11-25T18:23:05.954Z,98156.70
2022-11-25T18:25:34.172Z,98162.83
2022-11-25T18:28:05.301Z,98165.98
2022-11-25T18:30:37.063Z,98167.77
2022-11-25T18:33:10.538Z,98172.98
2022-11-25T18:35:40.763Z,98177.45
2022-11-25T18:38:11.745Z,98176.11
2022-11-25T18:40:42.596Z,98178.16
2022-11-25T18:43:23.268Z,98180.91
2022-11-25T18:45:54.048Z,98183.02
2022-11-25T18:48:25.092Z,98183.34
2022-11-25T18:50:56.068Z,98181.17
2022-11-25T18:53:25.792Z,98182.54
2022-11-25T18:55:54.248Z,98182.42
2022-11-25T18:58:27.108Z,98182.75
2022-11-25T19:01:12.788Z,98186.82
2022-11-25T19:03:42.103Z,98185.58
2022-11-25T19:06:16.836Z,98193.69
2022-11-25T19:08:45.108Z,98181.27
2022-11-25T19:11:44.828Z,98185.66
2022-11-25T19:14:42.219Z,98194.14
2022-11-25T19:17:20.101Z,98200.04
2022-11-25T19:19:50.282Z,98203.88
2022-11-25T19:22:19.143Z,98212.95
2022-11-25T19:24:47.581Z,98212.04
2022-11-25T19:27:23.651Z,98215.94
2022-11-25T19:29:52.530Z,98219.41
2022-11-25T19:32:28.984Z,98222.45
2022-11-25T19:35:08.522Z,98227.63
2022-11-25T19:37:36.508Z,98229.05
2022-11-25T19:40:34.708Z,98227.16
2022-11-25T19:43:06.658Z,98233.05
2022-11-25T19:45:35.731Z,98238.54
2022-11-25T19:48:08.668Z,98232.39
2022-11-25T19:50:39.601Z,98233.05
2022-11-25T19:53:19.626Z,98238.34
2022-11-25T19:55:48.246Z,98244.42
2022-11-25T19:58:16.335Z,98247.63
2022-11-25T20:00:47.852Z,98250.61
2022-11-25T20:03:27.392Z,98253.61
2022-11-25T20:05:56.044Z,98256.26
2022-11-25T20:08:27.616Z,98252.20
2022-11-25T20:10:58.033Z,98248.74
2022-11-25T20:13:27.043Z,98252.54
2022-11-25T20:15:56.208Z,98253.42
2022-11-25T20:18:27.102Z,98253.95
2022-11-25T20:21:04.563Z,98254.05
2022-11-25T20:23:44.250Z,98247.73
2022-11-25T20:26:28.740Z,98249.68
2022-11-25T20:28:57.257Z,98253.61
2022-11-25T20:31:30.198Z,98253.74
2022-11-25T20:33:59.123Z,98250.27
2022-11-25T20:36:34.295Z,98254.77
2022-11-25T20:39:03.968Z,98254.55
2022-11-25T20:41:33.583Z,98252.33
2022-11-25T20:44:03.410Z,98259.08
2022-11-25T20:46:32.965Z,98258.39
2022-11-25T20:49:14.301Z,98266.61
2022-11-25T20:51:43.051Z,98275.56
2022-11-25T20:54:11.715Z,98276.23
2022-11-25T20:56:40.120Z,98273.77
2022-11-25T20:59:22.121Z,98275.70
2022-11-25T21:01:51.743Z,98284.50
2022-11-25T21:04:21.360Z,98287.00
2022-11-25T21:06:50.407Z,98288.77
2022-11-25T21:09:23.180Z,98294.39
2022-11-25T21:11:51.705Z,98294.85
2022-11-25T21:14:20.459Z,98294.11
2022-11-25T21:16:48.888Z,98290.92
2022-11-25T21:19:17.693Z,98288.47
2022-11-25T21:21:48.652Z,98295.39
2022-11-25T21:24:19.646Z,98304.17
2022-11-25T21:26:47.816Z,98309.58
2022-11-25T21:29:17.495Z,98310.52
2022-11-25T21:31:45.736Z,98309.55
2022-11-25T21:34:14.206Z,98311.56
2022-11-25T21:36:45.056Z,98318.18
2022-11-25T21:39:26.541Z,98319.23
2022-11-25T21:41:55.075Z,98324.64
2022-11-25T21:44:32.611Z,98325.10
2022-11-25T21:47:02.999Z,98330.95
2022-11-25T21:49:32.181Z,98338.78
2022-11-25T21:52:00.117Z,98340.77
2022-11-25T21:54:28.158Z,98347.89
2022-11-25T21:56:57.937Z,98353.43
2022-11-25T21:59:26.511Z,98353.30
2022-11-25T22:01:55.504Z,98353.24
2022-11-25T22:04:24.355Z,98352.55
2022-11-25T22:06:54.436Z,98351.02
2022-11-25T22:09:22.546Z,98354.05
2022-11-25T22:11:50.683Z,98352.09
2022-11-25T22:14:39.134Z,98356.99
2022-11-25T22:17:16.074Z,98359.50
2022-11-25T22:19:45.330Z,98358.81
2022-11-25T22:22:16.285Z,98362.92
2022-11-25T22:24:45.409Z,98361.80
2022-11-25T22:27:22.479Z,98358.95
2022-11-25T22:29:51.778Z,98361.94
2022-11-25T22:32:20.717Z,98362.73
2022-11-25T22:34:48.689Z,98369.36
2022-11-25T22:37:20.229Z,98369.62
2022-11-25T22:39:49.661Z,98366.30
2022-11-25T22:42:26.796Z,98366.20
2022-11-25T22:44:57.256Z,98365.98
2022-11-25T22:47:44.234Z,98368.77
2022-11-25T22:50:19.991Z,98366.39
2022-11-25T22:52:48.874Z,98364.40
2022-11-25T22:55:21.876Z,98363.99
2022-11-25T22:57:51.988Z,98359.06
2022-11-25T23:00:24.559Z,98362.13
2022-11-25T23:02:56.352Z,98362.52
2022-11-25T23:05:32.173Z,98364.92
2022-11-25T23:08:26.165Z,98367.06
2022-11-25T23:10:55.559Z,98361.25
2022-11-25T23:13:24.651Z,98361.75
2022-11-25T23:15:55.965Z,98362.30
2022-11-25T23:18:34.096Z,98364.23
2022-11-25T23:21:06.225Z,98362.71
2022-11-25T23:23:34.233Z,98360.54
2022-11-25T23:26:05.497Z,98355.10
2022-11-25T23:28:33.664Z,98354.95
2022-11-25T23:31:04.510Z,98357.55
2022-11-25T23:33:40.376Z,98359.26
2022-11-25T23:36:31.168Z,98350.10
2022-11-25T23:39:02.334Z,98341.13
2022-11-25T23:41:33.094Z,98340.70
2022-11-25T23:44:16.320Z,98342.64
2022-11-25T23:46:45.632Z,98343.02
2022-11-25T23:49:28.211Z,98348.52
2022-11-25T23:52:03.344Z,98349.70
2022-11-25T23:54:46.469Z,98348.09
2022-11-25T23:57:18.363Z,98349.88
2022-11-25T23:59:48.024Z,98353.23
